sensor_id;sensor_type;location;lat;lon;timestamp;temperature;humidity
18388;DHT22;9320;50.256;19.026;2023-02-28T00:01:09;2.60;70.70
18388;DHT22;9320;50.256;19.026;2023-02-28T00:03:37;2.60;70.80
18388;DHT22;9320;50.256;19.026;2023-02-28T00:06:07;2.60;70.80
18388;DHT22;9320;50.256;19.026;2023-02-28T00:08:36;2.60;71.10
18388;DHT22;9320;50.256;19.026;2023-02-28T00:11:06;2.70;71.00
18388;DHT22;9320;50.256;19.026;2023-02-28T00:13:35;2.90;71.60
18388;DHT22;9320;50.256;19.026;2023-02-28T00:16:06;2.80;70.10
18388;DHT22;9320;50.256;19.026;2023-02-28T00:18:36;2.70;70.80
18388;DHT22;9320;50.256;19.026;2023-02-28T00:21:04;2.60;71.60
18388;DHT22;9320;50.256;19.026;2023-02-28T00:23:33;2.60;72.00
18388;DHT22;9320;50.256;19.026;2023-02-28T00:26:01;2.50;72.90
18388;DHT22;9320;50.256;19.026;2023-02-28T00:28:29;2.40;73.00
18388;DHT22;9320;50.256;19.026;2023-02-28T00:30:57;2.30;72.90
18388;DHT22;9320;50.256;19.026;2023-02-28T00:33:27;2.40;74.20
18388;DHT22;9320;50.256;19.026;2023-02-28T00:36:03;2.30;74.10
18388;DHT22;9320;50.256;19.026;2023-02-28T00:38:31;2.30;73.10
18388;DHT22;9320;50.256;19.026;2023-02-28T00:40:59;2.20;73.50
18388;DHT22;9320;50.256;19.026;2023-02-28T00:43:32;2.40;73.90
18388;DHT22;9320;50.256;19.026;2023-02-28T00:46:01;2.50;72.80
18388;DHT22;9320;50.256;19.026;2023-02-28T00:48:29;2.60;72.90
18388;DHT22;9320;50.256;19.026;2023-02-28T00:50:58;2.80;72.30
18388;DHT22;9320;50.256;19.026;2023-02-28T00:53:27;2.70;72.60
18388;DHT22;9320;50.256;19.026;2023-02-28T00:55:55;2.50;71.50
18388;DHT22;9320;50.256;19.026;2023-02-28T00:58:24;2.40;72.50
18388;DHT22;9320;50.256;19.026;2023-02-28T01:00:52;2.50;73.00
18388;DHT22;9320;50.256;19.026;2023-02-28T01:03:21;2.50;73.20
18388;DHT22;9320;50.256;19.026;2023-02-28T01:05:50;2.50;72.90
18388;DHT22;9320;50.256;19.026;2023-02-28T01:08:19;2.40;73.90
18388;DHT22;9320;50.256;19.026;2023-02-28T01:10:49;2.50;74.00
18388;DHT22;9320;50.256;19.026;2023-02-28T01:13:18;2.60;75.00
18388;DHT22;9320;50.256;19.026;2023-02-28T01:15:49;2.50;75.60
18388;DHT22;9320;50.256;19.026;2023-02-28T01:18:18;2.40;76.00
18388;DHT22;9320;50.256;19.026;2023-02-28T01:20:46;2.50;76.30
18388;DHT22;9320;50.256;19.026;2023-02-28T01:23:14;2.50;76.30
18388;DHT22;9320;50.256;19.026;2023-02-28T01:25:42;2.40;76.90
18388;DHT22;9320;50.256;19.026;2023-02-28T01:28:12;2.30;77.20
18388;DHT22;9320;50.256;19.026;2023-02-28T01:30:39;2.40;77.60
18388;DHT22;9320;50.256;19.026;2023-02-28T01:33:08;2.40;77.90
18388;DHT22;9320;50.256;19.026;2023-02-28T01:35:36;2.30;78.70
18388;DHT22;9320;50.256;19.026;2023-02-28T01:38:04;2.40;79.10
18388;DHT22;9320;50.256;19.026;2023-02-28T01:40:47;2.60;79.10
18388;DHT22;9320;50.256;19.026;2023-02-28T01:43:21;2.50;79.20
18388;DHT22;9320;50.256;19.026;2023-02-28T01:45:50;2.20;80.40
18388;DHT22;9320;50.256;19.026;2023-02-28T01:48:20;2.30;80.50
18388;DHT22;9320;50.256;19.026;2023-02-28T01:50:49;2.10;81.40
18388;DHT22;9320;50.256;19.026;2023-02-28T01:53:21;2.00;81.60
18388;DHT22;9320;50.256;19.026;2023-02-28T01:55:53;2.00;82.40
18388;DHT22;9320;50.256;19.026;2023-02-28T01:58:23;1.90;82.60
18388;DHT22;9320;50.256;19.026;2023-02-28T02:00:51;1.60;83.80
18388;DHT22;9320;50.256;19.026;2023-02-28T02:03:20;1.60;84.10
18388;DHT22;9320;50.256;19.026;2023-02-28T02:05:48;1.60;84.20
18388;DHT22;9320;50.256;19.026;2023-02-28T02:08:19;1.40;85.20
18388;DHT22;9320;50.256;19.026;2023-02-28T02:10:49;1.30;85.80
18388;DHT22;9320;50.256;19.026;2023-02-28T02:13:38;1.20;86.60
18388;DHT22;9320;50.256;19.026;2023-02-28T02:16:19;1.30;86.80
18388;DHT22;9320;50.256;19.026;2023-02-28T02:18:53;1.20;86.90
18388;DHT22;9320;50.256;19.026;2023-02-28T02:21:59;1.00;88.00
18388;DHT22;9320;50.256;19.026;2023-02-28T02:24:58;1.10;87.70
18388;DHT22;9320;50.256;19.026;2023-02-28T02:27:45;1.10;88.10
18388;DHT22;9320;50.256;19.026;2023-02-28T02:30:39;1.10;88.50
18388;DHT22;9320;50.256;19.026;2023-02-28T02:33:34;1.10;88.50
18388;DHT22;9320;50.256;19.026;2023-02-28T02:36:07;1.10;89.20
18388;DHT22;9320;50.256;19.026;2023-02-28T02:38:44;1.10;88.60
18388;DHT22;9320;50.256;19.026;2023-02-28T02:41:18;1.20;88.70
18388;DHT22;9320;50.256;19.026;2023-02-28T02:43:50;1.00;88.60
18388;DHT22;9320;50.256;19.026;2023-02-28T02:46:23;1.00;88.70
18388;DHT22;9320;50.256;19.026;2023-02-28T02:48:54;0.90;89.70
18388;DHT22;9320;50.256;19.026;2023-02-28T02:51:25;0.80;89.90
18388;DHT22;9320;50.256;19.026;2023-02-28T02:53:59;0.90;89.80
18388;DHT22;9320;50.256;19.026;2023-02-28T02:56:31;1.00;89.90
18388;DHT22;9320;50.256;19.026;2023-02-28T02:59:03;0.90;89.70
18388;DHT22;9320;50.256;19.026;2023-02-28T03:01:32;0.80;90.00
18388;DHT22;9320;50.256;19.026;2023-02-28T03:04:04;0.80;90.10
18388;DHT22;9320;50.256;19.026;2023-02-28T03:06:35;0.90;90.20
18388;DHT22;9320;50.256;19.026;2023-02-28T03:09:03;0.70;90.30
18388;DHT22;9320;50.256;19.026;2023-02-28T03:11:32;0.90;90.10
18388;DHT22;9320;50.256;19.026;2023-02-28T03:14:15;1.00;90.00
18388;DHT22;9320;50.256;19.026;2023-02-28T03:17:03;1.00;89.80
18388;DHT22;9320;50.256;19.026;2023-02-28T03:19:45;1.10;89.50
18388;DHT22;9320;50.256;19.026;2023-02-28T03:22:32;0.90;89.50
18388;DHT22;9320;50.256;19.026;2023-02-28T03:25:07;0.90;90.50
18388;DHT22;9320;50.256;19.026;2023-02-28T03:27:39;1.00;90.10
18388;DHT22;9320;50.256;19.026;2023-02-28T03:30:12;0.80;90.30
18388;DHT22;9320;50.256;19.026;2023-02-28T03:32:47;0.80;90.60
18388;DHT22;9320;50.256;19.026;2023-02-28T03:35:21;0.80;90.60
18388;DHT22;9320;50.256;19.026;2023-02-28T03:37:54;0.90;90.40
18388;DHT22;9320;50.256;19.026;2023-02-28T03:40:25;0.70;90.40
18388;DHT22;9320;50.256;19.026;2023-02-28T03:42:59;0.80;90.60
18388;DHT22;9320;50.256;19.026;2023-02-28T03:45:33;0.80;90.60
18388;DHT22;9320;50.256;19.026;2023-02-28T03:48:08;0.80;90.50
18388;DHT22;9320;50.256;19.026;2023-02-28T03:50:41;0.90;90.50
18388;DHT22;9320;50.256;19.026;2023-02-28T03:53:13;0.90;90.50
18388;DHT22;9320;50.256;19.026;2023-02-28T03:55:44;0.90;90.40
18388;DHT22;9320;50.256;19.026;2023-02-28T03:58:20;1.00;90.50
18388;DHT22;9320;50.256;19.026;2023-02-28T04:00:57;0.80;90.60
18388;DHT22;9320;50.256;19.026;2023-02-28T04:03:26;0.80;90.50
18388;DHT22;9320;50.256;19.026;2023-02-28T04:05:55;0.90;90.70
18388;DHT22;9320;50.256;19.026;2023-02-28T04:08:25;0.80;90.80
18388;DHT22;9320;50.256;19.026;2023-02-28T04:10:58;0.90;90.60
18388;DHT22;9320;50.256;19.026;2023-02-28T04:13:27;0.90;90.30
18388;DHT22;9320;50.256;19.026;2023-02-28T04:15:55;0.90;90.50
18388;DHT22;9320;50.256;19.026;2023-02-28T04:18:24;1.00;90.60
18388;DHT22;9320;50.256;19.026;2023-02-28T04:20:52;0.90;90.30
18388;DHT22;9320;50.256;19.026;2023-02-28T04:23:20;0.80;90.70
18388;DHT22;9320;50.256;19.026;2023-02-28T04:25:49;0.70;91.10
18388;DHT22;9320;50.256;19.026;2023-02-28T04:28:17;0.80;91.10
18388;DHT22;9320;50.256;19.026;2023-02-28T04:30:45;0.70;90.80
18388;DHT22;9320;50.256;19.026;2023-02-28T04:33:13;0.50;90.80
18388;DHT22;9320;50.256;19.026;2023-02-28T04:35:41;0.50;91.80
18388;DHT22;9320;50.256;19.026;2023-02-28T04:38:09;0.50;91.30
18388;DHT22;9320;50.256;19.026;2023-02-28T04:40:37;0.60;91.20
18388;DHT22;9320;50.256;19.026;2023-02-28T04:43:07;0.50;91.50
18388;DHT22;9320;50.256;19.026;2023-02-28T04:45:35;0.50;91.40
18388;DHT22;9320;50.256;19.026;2023-02-28T04:48:03;0.60;91.20
18388;DHT22;9320;50.256;19.026;2023-02-28T04:50:31;0.60;91.00
18388;DHT22;9320;50.256;19.026;2023-02-28T04:52:59;0.50;91.10
18388;DHT22;9320;50.256;19.026;2023-02-28T04:55:27;0.50;91.00
18388;DHT22;9320;50.256;19.026;2023-02-28T04:57:55;0.30;91.70
18388;DHT22;9320;50.256;19.026;2023-02-28T05:00:25;0.30;91.70
18388;DHT22;9320;50.256;19.026;2023-02-28T05:02:53;0.30;91.60
18388;DHT22;9320;50.256;19.026;2023-02-28T05:05:21;0.40;91.90
18388;DHT22;9320;50.256;19.026;2023-02-28T05:07:49;0.40;91.80
18388;DHT22;9320;50.256;19.026;2023-02-28T05:10:18;0.40;91.90
18388;DHT22;9320;50.256;19.026;2023-02-28T05:12:46;0.50;91.50
18388;DHT22;9320;50.256;19.026;2023-02-28T05:15:15;0.40;91.60
18388;DHT22;9320;50.256;19.026;2023-02-28T05:17:44;0.40;91.60
18388;DHT22;9320;50.256;19.026;2023-02-28T05:20:13;0.50;91.70
18388;DHT22;9320;50.256;19.026;2023-02-28T05:22:43;0.30;91.70
18388;DHT22;9320;50.256;19.026;2023-02-28T05:25:15;0.10;91.90
18388;DHT22;9320;50.256;19.026;2023-02-28T05:27:43;0.20;92.40
18388;DHT22;9320;50.256;19.026;2023-02-28T05:30:12;0.30;92.30
18388;DHT22;9320;50.256;19.026;2023-02-28T05:32:41;0.50;92.00
18388;DHT22;9320;50.256;19.026;2023-02-28T05:35:11;0.40;91.70
18388;DHT22;9320;50.256;19.026;2023-02-28T05:37:39;0.40;92.00
18388;DHT22;9320;50.256;19.026;2023-02-28T05:40:08;0.50;91.80
18388;DHT22;9320;50.256;19.026;2023-02-28T05:42:37;0.50;91.70
18388;DHT22;9320;50.256;19.026;2023-02-28T05:45:06;0.40;91.70
18388;DHT22;9320;50.256;19.026;2023-02-28T05:47:34;0.30;91.90
18388;DHT22;9320;50.256;19.026;2023-02-28T05:50:04;0.20;92.00
18388;DHT22;9320;50.256;19.026;2023-02-28T05:52:34;0.10;92.70
18388;DHT22;9320;50.256;19.026;2023-02-28T05:55:03;0.20;92.30
18388;DHT22;9320;50.256;19.026;2023-02-28T05:57:31;0.20;92.50
18388;DHT22;9320;50.256;19.026;2023-02-28T05:59:59;0.20;92.30
18388;DHT22;9320;50.256;19.026;2023-02-28T06:02:27;0.10;92.50
18388;DHT22;9320;50.256;19.026;2023-02-28T06:04:55;-0.20;93.10
18388;DHT22;9320;50.256;19.026;2023-02-28T06:07:23;0.00;93.40
18388;DHT22;9320;50.256;19.026;2023-02-28T06:09:52;0.20;93.20
18388;DHT22;9320;50.256;19.026;2023-02-28T06:12:20;0.10;92.90
18388;DHT22;9320;50.256;19.026;2023-02-28T06:14:48;0.20;93.00
18388;DHT22;9320;50.256;19.026;2023-02-28T06:17:16;0.10;93.00
18388;DHT22;9320;50.256;19.026;2023-02-28T06:19:44;-0.10;93.20
18388;DHT22;9320;50.256;19.026;2023-02-28T06:22:12;0.10;93.50
18388;DHT22;9320;50.256;19.026;2023-02-28T06:24:40;0.30;92.90
18388;DHT22;9320;50.256;19.026;2023-02-28T06:27:09;0.30;92.60
18388;DHT22;9320;50.256;19.026;2023-02-28T06:29:37;0.30;92.80
18388;DHT22;9320;50.256;19.026;2023-02-28T06:32:06;0.20;92.70
18388;DHT22;9320;50.256;19.026;2023-02-28T06:34:34;0.20;93.10
18388;DHT22;9320;50.256;19.026;2023-02-28T06:37:03;0.40;93.30
18388;DHT22;9320;50.256;19.026;2023-02-28T06:39:31;0.40;92.50
18388;DHT22;9320;50.256;19.026;2023-02-28T06:41:59;0.40;92.60
18388;DHT22;9320;50.256;19.026;2023-02-28T06:44:28;0.60;92.50
18388;DHT22;9320;50.256;19.026;2023-02-28T06:47:03;0.50;92.50
18388;DHT22;9320;50.256;19.026;2023-02-28T06:49:32;0.60;92.50
18388;DHT22;9320;50.256;19.026;2023-02-28T06:52:01;0.70;92.30
18388;DHT22;9320;50.256;19.026;2023-02-28T06:54:29;0.60;91.90
18388;DHT22;9320;50.256;19.026;2023-02-28T06:56:57;0.40;92.20
18388;DHT22;9320;50.256;19.026;2023-02-28T06:59:27;0.40;93.00
18388;DHT22;9320;50.256;19.026;2023-02-28T07:01:55;0.40;92.90
18388;DHT22;9320;50.256;19.026;2023-02-28T07:04:23;0.30;93.00
18388;DHT22;9320;50.256;19.026;2023-02-28T07:06:51;0.40;92.60
18388;DHT22;9320;50.256;19.026;2023-02-28T07:09:24;0.40;93.00
18388;DHT22;9320;50.256;19.026;2023-02-28T07:11:56;0.60;92.70
18388;DHT22;9320;50.256;19.026;2023-02-28T07:14:24;0.70;92.50
18388;DHT22;9320;50.256;19.026;2023-02-28T07:16:54;0.80;92.40
18388;DHT22;9320;50.256;19.026;2023-02-28T07:19:22;1.40;92.20
18388;DHT22;9320;50.256;19.026;2023-02-28T07:21:50;0.80;92.00
18388;DHT22;9320;50.256;19.026;2023-02-28T07:24:18;0.90;91.60
18388;DHT22;9320;50.256;19.026;2023-02-28T07:26:46;1.00;91.80
18388;DHT22;9320;50.256;19.026;2023-02-28T07:29:14;1.10;91.60
18388;DHT22;9320;50.256;19.026;2023-02-28T07:31:42;1.20;91.20
18388;DHT22;9320;50.256;19.026;2023-02-28T07:34:11;1.20;90.90
18388;DHT22;9320;50.256;19.026;2023-02-28T07:36:39;1.20;91.10
18388;DHT22;9320;50.256;19.026;2023-02-28T07:39:07;1.20;91.00
18388;DHT22;9320;50.256;19.026;2023-02-28T07:41:36;1.20;90.50
18388;DHT22;9320;50.256;19.026;2023-02-28T07:44:10;1.30;91.00
18388;DHT22;9320;50.256;19.026;2023-02-28T07:46:38;1.50;90.10
18388;DHT22;9320;50.256;19.026;2023-02-28T07:49:06;1.50;87.90
18388;DHT22;9320;50.256;19.026;2023-02-28T07:51:36;1.60;88.80
18388;DHT22;9320;50.256;19.026;2023-02-28T07:54:04;1.60;87.10
18388;DHT22;9320;50.256;19.026;2023-02-28T07:56:32;1.60;87.40
18388;DHT22;9320;50.256;19.026;2023-02-28T07:59:00;1.80;88.10
18388;DHT22;9320;50.256;19.026;2023-02-28T08:01:29;2.00;86.70
18388;DHT22;9320;50.256;19.026;2023-02-28T08:03:57;2.00;85.10
18388;DHT22;9320;50.256;19.026;2023-02-28T08:06:25;2.10;84.00
18388;DHT22;9320;50.256;19.026;2023-02-28T08:08:55;2.30;84.50
18388;DHT22;9320;50.256;19.026;2023-02-28T08:11:23;2.50;83.60
18388;DHT22;9320;50.256;19.026;2023-02-28T08:13:51;2.40;82.50
18388;DHT22;9320;50.256;19.026;2023-02-28T08:16:19;2.20;81.10
18388;DHT22;9320;50.256;19.026;2023-02-28T08:18:49;2.10;81.80
18388;DHT22;9320;50.256;19.026;2023-02-28T08:21:17;2.10;81.30
18388;DHT22;9320;50.256;19.026;2023-02-28T08:23:46;2.30;81.50
18388;DHT22;9320;50.256;19.026;2023-02-28T08:26:16;2.30;81.20
18388;DHT22;9320;50.256;19.026;2023-02-28T08:28:45;2.50;81.20
18388;DHT22;9320;50.256;19.026;2023-02-28T08:31:15;2.80;80.20
18388;DHT22;9320;50.256;19.026;2023-02-28T08:33:44;2.80;77.30
18388;DHT22;9320;50.256;19.026;2023-02-28T08:36:12;3.00;77.40
18388;DHT22;9320;50.256;19.026;2023-02-28T08:38:40;3.20;77.20
18388;DHT22;9320;50.256;19.026;2023-02-28T08:41:10;3.00;76.00
18388;DHT22;9320;50.256;19.026;2023-02-28T08:43:40;3.10;75.90
18388;DHT22;9320;50.256;19.026;2023-02-28T08:46:11;3.60;77.30
18388;DHT22;9320;50.256;19.026;2023-02-28T08:48:44;3.80;75.20
18388;DHT22;9320;50.256;19.026;2023-02-28T08:51:14;3.60;73.90
18388;DHT22;9320;50.256;19.026;2023-02-28T08:53:43;3.50;73.90
18388;DHT22;9320;50.256;19.026;2023-02-28T08:56:12;3.50;75.20
18388;DHT22;9320;50.256;19.026;2023-02-28T08:58:50;3.40;73.50
18388;DHT22;9320;50.256;19.026;2023-02-28T09:01:23;3.30;74.90
18388;DHT22;9320;50.256;19.026;2023-02-28T09:03:54;3.50;74.20
18388;DHT22;9320;50.256;19.026;2023-02-28T09:06:25;3.70;74.00
18388;DHT22;9320;50.256;19.026;2023-02-28T09:08:56;3.60;73.20
18388;DHT22;9320;50.256;19.026;2023-02-28T09:11:25;3.90;73.80
18388;DHT22;9320;50.256;19.026;2023-02-28T09:13:55;3.80;73.30
18388;DHT22;9320;50.256;19.026;2023-02-28T09:16:23;3.80;74.00
18388;DHT22;9320;50.256;19.026;2023-02-28T09:18:51;3.90;72.90
18388;DHT22;9320;50.256;19.026;2023-02-28T09:21:19;4.30;74.50
18388;DHT22;9320;50.256;19.026;2023-02-28T09:23:49;4.50;71.20
18388;DHT22;9320;50.256;19.026;2023-02-28T09:26:19;4.40;72.40
18388;DHT22;9320;50.256;19.026;2023-02-28T09:28:49;3.90;72.50
18388;DHT22;9320;50.256;19.026;2023-02-28T09:31:21;4.20;71.90
18388;DHT22;9320;50.256;19.026;2023-02-28T09:33:51;4.20;73.00
18388;DHT22;9320;50.256;19.026;2023-02-28T09:36:20;4.40;72.40
18388;DHT22;9320;50.256;19.026;2023-02-28T09:38:50;4.40;70.90
18388;DHT22;9320;50.256;19.026;2023-02-28T09:41:21;4.50;70.60
18388;DHT22;9320;50.256;19.026;2023-02-28T09:43:52;4.20;69.30
18388;DHT22;9320;50.256;19.026;2023-02-28T09:46:29;3.80;69.80
18388;DHT22;9320;50.256;19.026;2023-02-28T09:49:01;4.20;70.90
18388;DHT22;9320;50.256;19.026;2023-02-28T09:52:00;4.10;70.90
18388;DHT22;9320;50.256;19.026;2023-02-28T09:54:39;4.80;69.70
18388;DHT22;9320;50.256;19.026;2023-02-28T09:57:16;5.10;68.30
18388;DHT22;9320;50.256;19.026;2023-02-28T09:59:55;5.10;67.50
18388;DHT22;9320;50.256;19.026;2023-02-28T10:02:46;4.90;67.30
18388;DHT22;9320;50.256;19.026;2023-02-28T10:05:21;4.80;67.10
18388;DHT22;9320;50.256;19.026;2023-02-28T10:08:04;4.70;68.40
18388;DHT22;9320;50.256;19.026;2023-02-28T10:10:39;4.50;68.10
18388;DHT22;9320;50.256;19.026;2023-02-28T10:13:19;4.60;68.70
18388;DHT22;9320;50.256;19.026;2023-02-28T10:15:55;4.70;68.20
18388;DHT22;9320;50.256;19.026;2023-02-28T10:18:39;4.80;69.50
18388;DHT22;9320;50.256;19.026;2023-02-28T10:21:17;5.50;68.00
18388;DHT22;9320;50.256;19.026;2023-02-28T10:23:46;6.10;65.70
18388;DHT22;9320;50.256;19.026;2023-02-28T10:26:17;6.60;65.40
18388;DHT22;9320;50.256;19.026;2023-02-28T10:28:45;6.20;63.80
18388;DHT22;9320;50.256;19.026;2023-02-28T10:31:17;6.20;65.00
18388;DHT22;9320;50.256;19.026;2023-02-28T10:33:47;6.30;64.20
18388;DHT22;9320;50.256;19.026;2023-02-28T10:36:18;6.20;64.20
18388;DHT22;9320;50.256;19.026;2023-02-28T10:38:47;5.80;65.80
18388;DHT22;9320;50.256;19.026;2023-02-28T10:41:25;5.50;66.70
18388;DHT22;9320;50.256;19.026;2023-02-28T10:44:13;5.00;67.80
18388;DHT22;9320;50.256;19.026;2023-02-28T10:46:41;4.80;68.10
18388;DHT22;9320;50.256;19.026;2023-02-28T10:49:17;4.70;68.60
18388;DHT22;9320;50.256;19.026;2023-02-28T10:51:50;4.80;68.50
18388;DHT22;9320;50.256;19.026;2023-02-28T10:54:22;5.00;67.80
18388;DHT22;9320;50.256;19.026;2023-02-28T10:57:09;4.70;69.30
18388;DHT22;9320;50.256;19.026;2023-02-28T10:59:42;4.00;70.50
18388;DHT22;9320;50.256;19.026;2023-02-28T11:02:32;4.20;71.20
18388;DHT22;9320;50.256;19.026;2023-02-28T11:05:10;4.00;71.50
18388;DHT22;9320;50.256;19.026;2023-02-28T11:07:51;4.10;71.60
18388;DHT22;9320;50.256;19.026;2023-02-28T11:10:23;4.40;70.20
18388;DHT22;9320;50.256;19.026;2023-02-28T11:13:21;4.10;70.10
18388;DHT22;9320;50.256;19.026;2023-02-28T11:15:54;4.50;70.60
18388;DHT22;9320;50.256;19.026;2023-02-28T11:18:25;4.60;69.50
18388;DHT22;9320;50.256;19.026;2023-02-28T11:20:58;4.70;68.90
18388;DHT22;9320;50.256;19.026;2023-02-28T11:23:29;4.80;69.00
18388;DHT22;9320;50.256;19.026;2023-02-28T11:26:00;4.70;68.50
18388;DHT22;9320;50.256;19.026;2023-02-28T11:28:30;4.70;69.60
18388;DHT22;9320;50.256;19.026;2023-02-28T11:31:06;4.70;69.20
18388;DHT22;9320;50.256;19.026;2023-02-28T11:33:43;4.50;69.20
18388;DHT22;9320;50.256;19.026;2023-02-28T11:36:16;4.60;69.10
18388;DHT22;9320;50.256;19.026;2023-02-28T11:38:48;4.40;69.60
18388;DHT22;9320;50.256;19.026;2023-02-28T11:41:26;4.50;70.80
18388;DHT22;9320;50.256;19.026;2023-02-28T11:44:20;4.60;69.70
18388;DHT22;9320;50.256;19.026;2023-02-28T11:46:52;4.60;70.20
18388;DHT22;9320;50.256;19.026;2023-02-28T11:49:31;4.60;68.50
18388;DHT22;9320;50.256;19.026;2023-02-28T11:52:06;4.30;69.60
18388;DHT22;9320;50.256;19.026;2023-02-28T11:55:05;4.60;69.30
18388;DHT22;9320;50.256;19.026;2023-02-28T11:57:47;4.90;68.50
18388;DHT22;9320;50.256;19.026;2023-02-28T12:00:32;5.10;68.50
18388;DHT22;9320;50.256;19.026;2023-02-28T12:03:15;5.00;67.50
18388;DHT22;9320;50.256;19.026;2023-02-28T12:05:46;5.10;67.50
18388;DHT22;9320;50.256;19.026;2023-02-28T12:08:29;5.00;67.50
18388;DHT22;9320;50.256;19.026;2023-02-28T12:11:09;4.80;68.80
18388;DHT22;9320;50.256;19.026;2023-02-28T12:13:48;4.70;68.90
18388;DHT22;9320;50.256;19.026;2023-02-28T12:16:46;4.60;68.60
18388;DHT22;9320;50.256;19.026;2023-02-28T12:19:20;4.70;69.10
18388;DHT22;9320;50.256;19.026;2023-02-28T12:22:11;4.60;68.40
18388;DHT22;9320;50.256;19.026;2023-02-28T12:27:55;4.60;69.10
18388;DHT22;9320;50.256;19.026;2023-02-28T12:30:27;4.70;69.30
18388;DHT22;9320;50.256;19.026;2023-02-28T12:33:01;4.80;68.00
18388;DHT22;9320;50.256;19.026;2023-02-28T12:35:34;4.60;69.10
18388;DHT22;9320;50.256;19.026;2023-02-28T12:38:06;4.40;69.80
18388;DHT22;9320;50.256;19.026;2023-02-28T12:40:44;4.60;70.20
18388;DHT22;9320;50.256;19.026;2023-02-28T12:43:16;5.00;69.30
18388;DHT22;9320;50.256;19.026;2023-02-28T12:45:46;4.90;69.60
18388;DHT22;9320;50.256;19.026;2023-02-28T12:48:21;4.70;69.30
18388;DHT22;9320;50.256;19.026;2023-02-28T12:50:50;4.80;69.30
18388;DHT22;9320;50.256;19.026;2023-02-28T12:53:24;4.90;68.60
18388;DHT22;9320;50.256;19.026;2023-02-28T12:56:04;4.80;69.10
18388;DHT22;9320;50.256;19.026;2023-02-28T12:58:36;4.60;69.00
18388;DHT22;9320;50.256;19.026;2023-02-28T13:04:32;4.80;69.80
18388;DHT22;9320;50.256;19.026;2023-02-28T13:07:20;4.80;70.20
18388;DHT22;9320;50.256;19.026;2023-02-28T13:09:55;5.10;69.90
18388;DHT22;9320;50.256;19.026;2023-02-28T13:12:25;4.80;69.40
18388;DHT22;9320;50.256;19.026;2023-02-28T13:15:07;4.70;70.10
18388;DHT22;9320;50.256;19.026;2023-02-28T13:17:39;4.90;70.30
18388;DHT22;9320;50.256;19.026;2023-02-28T13:20:16;5.00;70.00
18388;DHT22;9320;50.256;19.026;2023-02-28T13:22:47;5.00;68.20
18388;DHT22;9320;50.256;19.026;2023-02-28T13:25:51;4.80;67.60
18388;DHT22;9320;50.256;19.026;2023-02-28T13:34:42;5.30;67.30
18388;DHT22;9320;50.256;19.026;2023-02-28T13:37:34;5.30;67.10
18388;DHT22;9320;50.256;19.026;2023-02-28T13:40:28;5.10;67.40
18388;DHT22;9320;50.256;19.026;2023-02-28T13:42:57;5.10;68.40
18388;DHT22;9320;50.256;19.026;2023-02-28T13:45:28;5.00;67.50
18388;DHT22;9320;50.256;19.026;2023-02-28T13:48:00;5.10;68.10
18388;DHT22;9320;50.256;19.026;2023-02-28T13:50:34;5.30;67.90
18388;DHT22;9320;50.256;19.026;2023-02-28T13:56:20;5.40;67.70
18388;DHT22;9320;50.256;19.026;2023-02-28T13:58:54;5.20;67.30
18388;DHT22;9320;50.256;19.026;2023-02-28T14:01:34;5.20;68.00
18388;DHT22;9320;50.256;19.026;2023-02-28T14:04:30;5.20;68.80
18388;DHT22;9320;50.256;19.026;2023-02-28T14:07:06;5.20;69.00
18388;DHT22;9320;50.256;19.026;2023-02-28T14:09:38;5.40;68.70
18388;DHT22;9320;50.256;19.026;2023-02-28T14:15:43;5.50;67.90
18388;DHT22;9320;50.256;19.026;2023-02-28T14:18:25;5.30;68.00
18388;DHT22;9320;50.256;19.026;2023-02-28T14:21:14;5.30;69.30
18388;DHT22;9320;50.256;19.026;2023-02-28T14:26:58;5.50;70.00
18388;DHT22;9320;50.256;19.026;2023-02-28T14:29:37;5.40;68.70
18388;DHT22;9320;50.256;19.026;2023-02-28T14:32:15;5.30;69.30
18388;DHT22;9320;50.256;19.026;2023-02-28T14:34:51;5.30;68.80
18388;DHT22;9320;50.256;19.026;2023-02-28T14:37:26;5.10;69.60
18388;DHT22;9320;50.256;19.026;2023-02-28T14:39:57;5.00;69.40
18388;DHT22;9320;50.256;19.026;2023-02-28T14:42:32;5.10;70.30
18388;DHT22;9320;50.256;19.026;2023-02-28T14:45:01;5.10;69.20
18388;DHT22;9320;50.256;19.026;2023-02-28T14:47:32;5.00;69.00
18388;DHT22;9320;50.256;19.026;2023-02-28T14:50:03;4.80;69.80
18388;DHT22;9320;50.256;19.026;2023-02-28T14:52:33;5.00;69.70
18388;DHT22;9320;50.256;19.026;2023-02-28T14:55:04;5.20;69.70
18388;DHT22;9320;50.256;19.026;2023-02-28T14:57:38;5.10;68.90
18388;DHT22;9320;50.256;19.026;2023-02-28T15:00:13;5.10;69.50
18388;DHT22;9320;50.256;19.026;2023-02-28T15:02:42;5.10;69.40
18388;DHT22;9320;50.256;19.026;2023-02-28T15:05:28;5.10;69.70
18388;DHT22;9320;50.256;19.026;2023-02-28T15:08:03;4.90;69.00
18388;DHT22;9320;50.256;19.026;2023-02-28T15:10:34;4.90;69.30
18388;DHT22;9320;50.256;19.026;2023-02-28T15:13:05;5.10;70.30
18388;DHT22;9320;50.256;19.026;2023-02-28T15:15:41;5.10;69.10
18388;DHT22;9320;50.256;19.026;2023-02-28T15:18:37;5.10;69.40
18388;DHT22;9320;50.256;19.026;2023-02-28T15:21:12;4.90;69.00
18388;DHT22;9320;50.256;19.026;2023-02-28T15:23:46;4.70;69.30
18388;DHT22;9320;50.256;19.026;2023-02-28T15:26:20;4.80;69.50
18388;DHT22;9320;50.256;19.026;2023-02-28T15:28:59;4.60;69.60
18388;DHT22;9320;50.256;19.026;2023-02-28T15:31:29;4.70;70.40
18388;DHT22;9320;50.256;19.026;2023-02-28T15:34:18;4.70;69.90
18388;DHT22;9320;50.256;19.026;2023-02-28T15:36:47;4.60;70.40
18388;DHT22;9320;50.256;19.026;2023-02-28T15:39:22;4.50;70.40
18388;DHT22;9320;50.256;19.026;2023-02-28T15:41:51;4.60;71.30
18388;DHT22;9320;50.256;19.026;2023-02-28T15:44:25;4.80;70.60
18388;DHT22;9320;50.256;19.026;2023-02-28T15:47:01;4.80;70.40
18388;DHT22;9320;50.256;19.026;2023-02-28T15:49:38;4.60;70.00
18388;DHT22;9320;50.256;19.026;2023-02-28T15:52:13;4.60;71.20
18388;DHT22;9320;50.256;19.026;2023-02-28T15:54:43;4.70;71.40
18388;DHT22;9320;50.256;19.026;2023-02-28T15:57:17;4.80;71.00
18388;DHT22;9320;50.256;19.026;2023-02-28T15:59:51;4.60;71.00
18388;DHT22;9320;50.256;19.026;2023-02-28T16:02:21;4.50;71.60
18388;DHT22;9320;50.256;19.026;2023-02-28T16:05:18;4.50;71.60
18388;DHT22;9320;50.256;19.026;2023-02-28T16:07:51;4.60;72.10
18388;DHT22;9320;50.256;19.026;2023-02-28T16:10:21;4.60;72.10
18388;DHT22;9320;50.256;19.026;2023-02-28T16:12:55;4.60;71.90
18388;DHT22;9320;50.256;19.026;2023-02-28T16:15:25;4.50;72.70
18388;DHT22;9320;50.256;19.026;2023-02-28T16:17:54;4.60;71.60
18388;DHT22;9320;50.256;19.026;2023-02-28T16:20:24;4.50;71.20
18388;DHT22;9320;50.256;19.026;2023-02-28T16:22:53;4.30;71.80
18388;DHT22;9320;50.256;19.026;2023-02-28T16:25:24;4.00;72.80
18388;DHT22;9320;50.256;19.026;2023-02-28T16:27:56;3.90;73.30
18388;DHT22;9320;50.256;19.026;2023-02-28T16:30:28;4.00;73.50
18388;DHT22;9320;50.256;19.026;2023-02-28T16:32:58;3.80;74.20
18388;DHT22;9320;50.256;19.026;2023-02-28T16:35:26;3.80;74.20
18388;DHT22;9320;50.256;19.026;2023-02-28T16:37:54;3.90;74.40
18388;DHT22;9320;50.256;19.026;2023-02-28T16:40:24;4.00;73.90
18388;DHT22;9320;50.256;19.026;2023-02-28T16:42:58;3.80;74.30